Time;durP1;ratioP1;P1;durP2;ratioP2;P2;SDS_P1;SDS_P2;PMS_P1;PMS_P2;Temp;Humidity;BMP_temperature;BMP_pressure;BME280_temperature;BME280_humidity;BME280_pressure;Samples;Min_cycle;Max_cycle;Signal;HPM_P1;HPM_P2
2023/10/29 00:01:41;;;;;;;17.70;5.83;;;11.10;99.90;;;;;;4912394;28;20195;-67
2023/10/29 00:04:06;;;;;;;8.00;3.37;;;11.10;99.90;;;;;;4910509;28;20184;-68
2023/10/29 00:06:32;;;;;;;8.93;3.27;;;11.10;99.90;;;;;;4912535;28;20188;-69
2023/10/29 00:08:58;;;;;;;5.97;3.20;;;11.10;99.90;;;;;;4912226;28;20204;-68
2023/10/29 00:11:23;;;;;;;11.50;3.07;;;11.10;99.90;;;;;;4912384;28;20184;-68
2023/10/29 00:13:49;;;;;;;4.87;2.70;;;11.10;99.90;;;;;;4911751;28;20191;-67
2023/10/29 00:16:14;;;;;;;5.43;2.80;;;11.10;99.90;;;;;;4912305;28;20603;-67
2023/10/29 00:18:41;;;;;;;13.80;2.90;;;11.20;99.90;;;;;;4911910;28;20273;-67
2023/10/29 00:21:07;;;;;;;9.83;3.10;;;11.20;99.90;;;;;;4912172;28;20620;-67
2023/10/29 00:23:33;;;;;;;6.57;2.80;;;11.30;99.90;;;;;;4911487;28;20689;-67
2023/10/29 00:25:58;;;;;;;5.67;2.70;;;11.30;99.90;;;;;;4904185;28;20180;-68
2023/10/29 00:28:25;;;;;;;8.00;3.00;;;11.30;99.90;;;;;;4911784;28;20207;-67
2023/10/29 00:30:52;;;;;;;11.10;3.33;;;11.20;99.90;;;;;;4911851;28;20262;-68
2023/10/29 00:33:18;;;;;;;8.17;2.67;;;11.20;99.90;;;;;;4911397;28;20250;-67
2023/10/29 00:35:43;;;;;;;7.93;3.00;;;11.20;99.90;;;;;;4911864;28;20195;-67
2023/10/29 00:38:09;;;;;;;7.37;2.93;;;11.20;99.90;;;;;;4911742;28;20250;-66
2023/10/29 00:40:38;;;;;;;3.43;2.40;;;11.20;99.90;;;;;;4911835;28;20191;-68
2023/10/29 00:43:04;;;;;;;10.33;4.10;;;11.20;99.90;;;;;;4910317;28;20216;-68
2023/10/29 00:45:29;;;;;;;7.97;2.93;;;11.20;99.90;;;;;;4911340;28;20207;-67
2023/10/29 00:47:55;;;;;;;8.13;2.70;;;11.20;99.90;;;;;;4911531;28;20192;-71
2023/10/29 00:50:21;;;;;;;8.73;2.73;;;11.20;99.90;;;;;;4911689;28;20238;-68
2023/10/29 00:52:47;;;;;;;7.07;2.70;;;11.20;99.90;;;;;;4911522;28;20192;-68
2023/10/29 00:55:13;;;;;;;7.83;2.90;;;11.20;99.90;;;;;;4911115;28;20196;-68
2023/10/29 00:57:40;;;;;;;5.77;2.07;;;11.20;99.90;;;;;;4911488;28;20207;-67
2023/10/29 01:00:06;;;;;;;5.43;2.10;;;11.20;99.90;;;;;;4911710;28;20202;-67
2023/10/29 01:02:33;;;;;;;5.87;1.93;;;11.20;99.90;;;;;;4910776;28;20223;-67
2023/10/29 01:04:58;;;;;;;6.63;2.07;;;11.20;99.90;;;;;;4910725;28;20712;-67
2023/10/29 01:07:24;;;;;;;5.37;2.33;;;11.20;99.90;;;;;;4911605;28;20184;-68
2023/10/29 01:09:50;;;;;;;6.00;2.03;;;11.20;99.90;;;;;;4903564;28;20218;-68
2023/10/29 01:12:19;;;;;;;8.07;2.10;;;11.20;99.90;;;;;;4911475;28;20464;-68
2023/10/29 01:14:45;;;;;;;5.50;2.17;;;11.20;99.90;;;;;;4910686;28;20204;-67
2023/10/29 01:17:11;;;;;;;5.83;2.20;;;11.20;99.90;;;;;;4911398;28;20269;-68
2023/10/29 01:19:37;;;;;;;4.50;1.97;;;11.20;99.90;;;;;;4911151;28;20235;-68
2023/10/29 01:22:02;;;;;;;8.03;2.50;;;11.20;99.90;;;;;;4911469;28;20183;-67
2023/10/29 01:24:28;;;;;;;4.37;1.93;;;11.20;99.90;;;;;;4910714;28;20188;-67
2023/10/29 01:26:54;;;;;;;8.93;2.00;;;11.20;99.90;;;;;;4902148;28;20681;-68
2023/10/29 01:29:20;;;;;;;7.37;2.30;;;11.30;99.90;;;;;;4911134;28;20259;-68
2023/10/29 01:31:48;;;;;;;10.23;2.03;;;11.20;99.90;;;;;;4911139;28;20192;-67
2023/10/29 01:34:14;;;;;;;7.23;2.00;;;11.20;99.90;;;;;;4910852;28;20215;-68
2023/10/29 01:36:40;;;;;;;7.10;2.00;;;11.20;99.90;;;;;;4911227;28;20219;-68
2023/10/29 01:39:06;;;;;;;6.47;1.80;;;11.20;99.90;;;;;;4911198;28;20212;-68
2023/10/29 01:41:32;;;;;;;6.93;2.17;;;11.20;99.90;;;;;;4911150;28;20660;-68
2023/10/29 01:43:58;;;;;;;7.27;1.90;;;11.20;99.90;;;;;;4910515;28;20626;-68
2023/10/29 01:46:24;;;;;;;3.60;1.97;;;11.20;99.90;;;;;;4911208;28;20184;-68
2023/10/29 01:48:49;;;;;;;5.13;2.17;;;11.20;99.90;;;;;;4910937;28;20692;-68
2023/10/29 01:51:15;;;;;;;5.20;1.80;;;11.10;99.90;;;;;;4911163;28;20192;-68
2023/10/29 01:53:41;;;;;;;4.80;1.90;;;11.10;99.90;;;;;;4910397;28;20355;-68
2023/10/29 01:56:09;;;;;;;6.27;2.10;;;11.10;99.90;;;;;;4910947;28;20695;-67
2023/10/29 01:58:35;;;;;;;6.70;2.00;;;11.10;99.90;;;;;;4910823;28;20596;-68
2023/10/29 02:01:01;;;;;;;4.17;2.03;;;11.10;99.90;;;;;;4903435;28;20284;-67
2023/10/29 02:03:27;;;;;;;7.27;1.90;;;11.10;99.90;;;;;;4910309;28;20278;-68
2023/10/29 02:05:52;;;;;;;10.03;2.33;;;11.10;99.90;;;;;;4909760;28;20192;-68
2023/10/29 02:08:18;;;;;;;9.70;2.37;;;11.10;99.90;;;;;;4910858;28;20739;-68
2023/10/29 02:10:44;;;;;;;3.40;1.93;;;11.10;99.90;;;;;;4907654;28;20204;-68
2023/10/29 02:13:10;;;;;;;6.47;2.17;;;11.20;99.90;;;;;;4910108;28;20188;-68
2023/10/29 02:15:36;;;;;;;10.60;2.20;;;11.10;99.90;;;;;;4913785;28;20681;-68
2023/10/29 02:18:01;;;;;;;6.50;2.07;;;11.10;99.90;;;;;;4913905;28;20208;-67
2023/10/29 02:20:27;;;;;;;9.67;1.93;;;11.20;99.90;;;;;;4913894;28;20203;-68
2023/10/29 02:22:52;;;;;;;5.13;1.70;;;11.20;99.90;;;;;;4913882;28;20184;-68
2023/10/29 02:25:18;;;;;;;4.97;1.83;;;11.20;99.90;;;;;;4913418;28;20183;-68
2023/10/29 02:27:43;;;;;;;6.13;2.00;;;11.20;99.90;;;;;;4913733;28;20266;-68
2023/10/29 02:30:10;;;;;;;2.93;1.53;;;11.30;99.90;;;;;;4913830;28;20301;-67
2023/10/29 02:32:36;;;;;;;7.67;2.10;;;11.20;99.90;;;;;;4913776;28;20660;-68
2023/10/29 02:35:02;;;;;;;10.87;1.97;;;11.20;99.90;;;;;;4913143;28;20286;-69
2023/10/29 02:37:27;;;;;;;5.50;1.87;;;11.20;99.90;;;;;;4913751;28;20219;-68
2023/10/29 02:39:53;;;;;;;6.20;1.97;;;11.20;99.90;;;;;;4913646;28;20251;-68
2023/10/29 02:42:19;;;;;;;6.50;1.90;;;11.10;99.90;;;;;;4912418;28;20224;-68
2023/10/29 02:44:44;;;;;;;3.70;1.90;;;11.10;99.90;;;;;;4913030;28;20196;-69
2023/10/29 02:47:10;;;;;;;8.37;1.77;;;11.20;99.90;;;;;;4912440;28;20254;-67
2023/10/29 02:49:35;;;;;;;6.53;2.20;;;11.20;99.90;;;;;;4896577;28;20224;-69
2023/10/29 02:52:01;;;;;;;5.47;1.73;;;11.20;99.90;;;;;;4913663;28;20192;-67
2023/10/29 02:54:27;;;;;;;7.73;1.97;;;11.20;99.90;;;;;;4912898;28;20347;-66
2023/10/29 02:56:52;;;;;;;7.73;2.20;;;11.20;99.90;;;;;;4913236;28;20203;-66
2023/10/29 02:59:18;;;;;;;3.17;1.93;;;11.10;99.90;;;;;;4913293;28;20246;-67
2023/10/29 03:01:43;;;;;;;4.00;2.07;;;11.10;99.90;;;;;;4913202;28;20196;-67
2023/10/29 03:04:09;;;;;;;4.90;2.30;;;11.20;99.90;;;;;;4912607;28;20192;-66
2023/10/29 03:06:38;;;;;;;6.27;2.10;;;11.10;99.90;;;;;;4913199;28;20760;-67
2023/10/29 03:09:05;;;;;;;7.63;2.20;;;11.10;99.90;;;;;;4905301;28;20310;-67
2023/10/29 03:11:30;;;;;;;3.00;1.87;;;11.10;99.90;;;;;;4913138;28;20191;-67
2023/10/29 03:13:57;;;;;;;5.80;2.17;;;11.10;99.90;;;;;;4912698;28;20258;-67
2023/10/29 03:16:23;;;;;;;5.87;2.07;;;11.10;99.90;;;;;;4905367;28;20270;-67
2023/10/29 03:18:48;;;;;;;6.27;2.27;;;11.10;99.90;;;;;;4912843;28;20657;-66
2023/10/29 03:21:16;;;;;;;5.97;2.13;;;11.10;99.90;;;;;;4913067;28;20192;-66
2023/10/29 03:23:42;;;;;;;6.27;2.40;;;11.20;99.90;;;;;;4912340;28;20211;-67
2023/10/29 03:26:07;;;;;;;6.00;2.30;;;11.20;99.90;;;;;;4912169;28;20246;-66
2023/10/29 03:28:35;;;;;;;4.90;2.10;;;11.20;99.90;;;;;;4913042;28;20211;-67
2023/10/29 03:31:00;;;;;;;3.87;2.40;;;11.20;99.90;;;;;;4905065;28;20638;-67
2023/10/29 03:33:26;;;;;;;6.50;2.20;;;11.20;99.90;;;;;;4945383;28;20230;-67
2023/10/29 03:35:52;;;;;;;4.43;1.93;;;11.20;99.90;;;;;;4912822;28;20679;-67
2023/10/29 03:38:17;;;;;;;5.93;2.00;;;11.20;99.90;;;;;;4912616;28;20234;-67
2023/10/29 03:40:43;;;;;;;7.80;2.60;;;11.20;99.90;;;;;;4912551;28;20668;-67
2023/10/29 03:43:08;;;;;;;5.83;2.10;;;11.20;99.90;;;;;;4911984;28;20531;-68
2023/10/29 03:45:35;;;;;;;6.77;2.00;;;11.20;99.90;;;;;;4912748;28;20200;-67
2023/10/29 03:48:00;;;;;;;9.10;2.00;;;11.20;99.90;;;;;;4912598;28;20214;-67
2023/10/29 03:50:26;;;;;;;2.77;1.60;;;11.20;99.90;;;;;;4912787;28;20196;-68
2023/10/29 03:52:52;;;;;;;5.03;2.10;;;11.20;99.90;;;;;;4912498;28;20303;-67
2023/10/29 03:55:17;;;;;;;5.07;2.23;;;11.20;99.90;;;;;;4912528;28;20195;-67
2023/10/29 03:57:43;;;;;;;6.83;2.23;;;11.20;99.90;;;;;;4912182;28;20226;-67
2023/10/29 04:00:09;;;;;;;3.07;1.70;;;11.20;99.90;;;;;;4953730;28;20211;-67
2023/10/29 04:02:35;;;;;;;7.23;2.37;;;11.20;99.90;;;;;;4912506;28;20619;-66
2023/10/29 04:05:00;;;;;;;6.20;2.70;;;11.20;99.90;;;;;;4910628;28;20267;-67
2023/10/29 04:07:26;;;;;;;5.03;2.17;;;11.20;99.90;;;;;;4912780;28;20199;-67
2023/10/29 04:09:51;;;;;;;8.93;2.27;;;11.10;99.90;;;;;;4912216;28;20287;-68
2023/10/29 04:12:17;;;;;;;5.43;2.03;;;11.20;99.90;;;;;;4912467;28;20266;-68
2023/10/29 04:14:43;;;;;;;2.33;1.80;;;11.10;99.90;;;;;;4911713;28;20290;-66
2023/10/29 04:17:09;;;;;;;7.30;1.90;;;11.10;99.90;;;;;;4912379;28;20239;-66
2023/10/29 04:19:34;;;;;;;9.60;2.37;;;11.20;99.90;;;;;;4912278;28;20227;-67
2023/10/29 04:22:01;;;;;;;7.67;1.93;;;11.10;99.90;;;;;;4912386;28;20188;-67
2023/10/29 04:24:27;;;;;;;7.87;2.50;;;11.10;99.90;;;;;;4911428;28;20254;-68
2023/10/29 04:26:52;;;;;;;6.27;2.10;;;11.10;99.90;;;;;;4912090;28;20192;-68
2023/10/29 04:29:18;;;;;;;5.10;2.00;;;11.10;99.90;;;;;;4912103;28;20208;-68
2023/10/29 04:31:43;;;;;;;5.87;2.10;;;11.10;99.90;;;;;;4912216;28;20191;-68
2023/10/29 04:34:09;;;;;;;5.43;1.80;;;11.10;99.90;;;;;;4911460;28;20549;-67
2023/10/29 04:36:34;;;;;;;6.67;2.43;;;11.10;99.90;;;;;;4911775;28;20577;-67
2023/10/29 04:39:00;;;;;;;7.40;2.33;;;11.10;99.90;;;;;;4911128;28;20724;-68
2023/10/29 04:41:25;;;;;;;4.47;2.10;;;11.10;99.90;;;;;;4911885;28;20721;-68
2023/10/29 04:43:51;;;;;;;8.37;1.90;;;11.10;99.90;;;;;;4911269;28;20203;-68
2023/10/29 04:46:17;;;;;;;8.73;1.93;;;11.10;99.90;;;;;;4911930;28;20196;-68
2023/10/29 04:48:43;;;;;;;3.73;2.00;;;11.10;99.90;;;;;;4911568;28;20241;-68
2023/10/29 04:51:09;;;;;;;5.97;2.00;;;11.10;99.90;;;;;;4911766;28;20188;-68
2023/10/29 04:53:35;;;;;;;3.50;1.80;;;11.10;99.90;;;;;;4911038;28;20275;-68
2023/10/29 04:56:02;;;;;;;4.23;1.80;;;11.20;99.90;;;;;;4911488;28;20188;-68
2023/10/29 04:58:29;;;;;;;4.40;1.70;;;11.20;99.90;;;;;;4911580;28;20267;-68
2023/10/29 05:00:56;;;;;;;4.97;1.70;;;11.20;99.90;;;;;;4910415;28;20215;-68
2023/10/29 05:03:22;;;;;;;5.07;2.00;;;11.20;99.90;;;;;;4910989;28;20259;-67
2023/10/29 05:05:47;;;;;;;8.67;2.23;;;11.20;99.90;;;;;;4911540;28;20309;-67
2023/10/29 05:08:13;;;;;;;5.73;1.97;;;11.20;99.90;;;;;;4911511;28;20226;-67
2023/10/29 05:10:38;;;;;;;4.33;1.57;;;11.30;99.90;;;;;;4911302;28;20195;-68
2023/10/29 05:13:04;;;;;;;6.80;2.00;;;11.30;99.90;;;;;;4911214;28;20196;-67
2023/10/29 05:15:30;;;;;;;5.37;1.93;;;11.30;99.90;;;;;;4911021;28;20202;-67
2023/10/29 05:17:55;;;;;;;5.20;1.90;;;11.30;99.90;;;;;;4903425;28;20240;-68
2023/10/29 05:20:21;;;;;;;6.27;1.90;;;11.30;99.90;;;;;;4911522;28;20275;-67
2023/10/29 05:22:46;;;;;;;4.03;1.70;;;11.30;99.90;;;;;;4911344;28;20192;-68
2023/10/29 05:25:12;;;;;;;6.10;1.67;;;11.30;99.90;;;;;;4910845;28;20254;-67
2023/10/29 05:27:37;;;;;;;8.30;2.00;;;11.30;99.90;;;;;;4911199;28;20203;-67
2023/10/29 05:30:07;;;;;;;9.83;1.73;;;11.40;99.90;;;;;;4911199;28;20220;-68
2023/10/29 05:32:33;;;;;;;5.03;1.97;;;11.40;99.90;;;;;;4911219;28;20195;-68
2023/10/29 05:34:58;;;;;;;4.53;1.93;;;11.40;99.90;;;;;;4951787;28;20195;-67
2023/10/29 05:37:24;;;;;;;7.87;1.90;;;11.40;99.90;;;;;;4911031;28;20267;-68
2023/10/29 05:39:51;;;;;;;3.60;1.80;;;11.40;99.90;;;;;;4911049;28;20706;-67
2023/10/29 05:42:17;;;;;;;7.33;1.33;;;11.50;99.90;;;;;;4908783;28;20310;-68
2023/10/29 05:44:43;;;;;;;6.80;1.40;;;11.50;99.90;;;;;;4910371;28;20212;-68
2023/10/29 05:47:08;;;;;;;3.87;1.40;;;11.50;99.90;;;;;;4910027;28;20176;-67
2023/10/29 05:49:34;;;;;;;3.43;1.47;;;11.50;99.90;;;;;;4913044;28;20230;-67
2023/10/29 05:51:59;;;;;;;5.93;1.63;;;11.60;99.90;;;;;;4914441;28;20641;-67
2023/10/29 05:54:25;;;;;;;3.03;1.30;;;11.60;99.90;;;;;;4913767;28;20184;-67
2023/10/29 05:56:50;;;;;;;4.73;1.77;;;11.50;99.90;;;;;;4914355;28;20206;-67
2023/10/29 05:59:16;;;;;;;3.00;1.53;;;11.40;99.90;;;;;;4914193;28;20224;-67
2023/10/29 06:01:42;;;;;;;4.83;1.90;;;11.40;99.90;;;;;;4914299;28;20245;-67
2023/10/29 06:04:07;;;;;;;8.10;1.70;;;11.50;99.90;;;;;;4913686;28;20187;-67
2023/10/29 06:06:33;;;;;;;4.03;1.90;;;11.40;99.90;;;;;;4914193;28;20565;-68
2023/10/29 06:08:58;;;;;;;3.93;2.20;;;11.40;99.90;;;;;;4914176;28;20298;-68
2023/10/29 06:11:24;;;;;;;5.17;2.10;;;11.40;99.90;;;;;;4914100;28;20619;-67
2023/10/29 06:13:53;;;;;;;7.23;2.07;;;11.40;99.90;;;;;;4913408;28;20614;-68
2023/10/29 06:16:18;;;;;;;2.43;1.00;;;11.40;99.90;;;;;;4914256;28;20198;-68
2023/10/29 06:18:44;;;;;;;3.70;1.00;;;11.40;99.90;;;;;;4913847;28;20219;-68
2023/10/29 06:21:09;;;;;;;5.93;1.27;;;11.40;99.90;;;;;;4914054;28;20212;-67
2023/10/29 06:23:35;;;;;;;2.60;1.10;;;11.50;99.90;;;;;;4913373;28;20201;-68
2023/10/29 06:26:00;;;;;;;7.53;1.43;;;11.60;99.90;;;;;;4913946;28;20641;-67
2023/10/29 06:28:26;;;;;;;3.90;1.63;;;11.70;99.90;;;;;;4913731;28;20287;-68
2023/10/29 06:30:52;;;;;;;6.77;1.37;;;11.70;99.90;;;;;;4913925;28;20191;-68
2023/10/29 06:33:18;;;;;;;3.33;1.47;;;11.70;99.90;;;;;;4913251;28;20195;-68
2023/10/29 06:35:43;;;;;;;4.53;1.10;;;11.70;99.90;;;;;;4913879;28;20195;-67
2023/10/29 06:38:09;;;;;;;2.37;1.13;;;11.70;99.90;;;;;;4913765;28;20732;-66
2023/10/29 06:40:34;;;;;;;3.03;1.17;;;11.70;99.90;;;;;;4913942;28;20538;-68
2023/10/29 06:43:01;;;;;;;6.30;1.60;;;11.70;99.90;;;;;;4913458;28;20188;-68
2023/10/29 06:45:27;;;;;;;3.73;1.30;;;11.70;99.90;;;;;;4913296;28;20180;-68
2023/10/29 06:47:52;;;;;;;1.60;1.00;;;11.70;99.90;;;;;;4913646;28;20295;-69
2023/10/29 06:50:18;;;;;;;3.30;1.60;;;11.70;99.90;;;;;;4913533;28;20226;-68
2023/10/29 06:52:43;;;;;;;8.47;2.40;;;11.70;99.90;;;;;;4913536;28;20203;-68
2023/10/29 06:55:09;;;;;;;7.83;1.93;;;11.70;99.90;;;;;;4899882;28;20203;-68
2023/10/29 06:57:36;;;;;;;2.40;1.30;;;11.70;99.90;;;;;;4909732;28;20196;-68
2023/10/29 07:00:02;;;;;;;5.23;1.40;;;11.60;99.90;;;;;;4912739;28;20226;-67
2023/10/29 07:02:27;;;;;;;4.57;1.20;;;11.70;99.90;;;;;;4913494;28;20646;-68
2023/10/29 07:04:53;;;;;;;4.07;1.10;;;11.70;99.90;;;;;;4912902;28;20190;-68
2023/10/29 07:07:18;;;;;;;3.53;1.20;;;11.70;99.90;;;;;;4916371;28;20191;-68
2023/10/29 07:09:44;;;;;;;1.90;1.10;;;11.70;99.90;;;;;;4913243;28;20204;-68
2023/10/29 07:12:10;;;;;;;9.97;1.30;;;11.70;99.90;;;;;;4913228;28;20707;-67
2023/10/29 07:14:35;;;;;;;3.10;0.93;;;11.70;99.90;;;;;;4911858;28;20219;-68
2023/10/29 07:17:01;;;;;;;6.00;1.03;;;11.70;99.90;;;;;;4911919;28;20258;-68
2023/10/29 07:19:26;;;;;;;9.60;2.30;;;11.70;99.90;;;;;;4912582;28;20219;-68
2023/10/29 07:21:52;;;;;;;2.87;1.13;;;11.80;99.90;;;;;;4912566;28;20204;-68
2023/10/29 07:24:17;;;;;;;2.77;1.30;;;11.80;99.90;;;;;;4911832;28;20196;-69
2023/10/29 07:26:44;;;;;;;3.83;1.80;;;11.80;99.90;;;;;;4912119;28;20206;-68
2023/10/29 07:29:11;;;;;;;2.40;1.33;;;11.80;99.90;;;;;;4912492;28;20212;-67
2023/10/29 07:31:37;;;;;;;3.00;1.30;;;11.70;99.90;;;;;;4945448;28;20192;-67
2023/10/29 07:34:02;;;;;;;5.23;1.70;;;11.80;99.90;;;;;;4911438;28;20557;-68
2023/10/29 07:36:28;;;;;;;1.70;0.93;;;11.90;99.90;;;;;;4912301;28;20282;-68
2023/10/29 07:38:54;;;;;;;3.07;0.93;;;11.90;99.90;;;;;;4912064;28;20226;-68
2023/10/29 07:41:21;;;;;;;1.90;0.80;;;11.90;99.90;;;;;;4912133;28;20196;-69
2023/10/29 07:43:47;;;;;;;2.53;1.77;;;12.00;99.90;;;;;;4911550;28;20200;-68
2023/10/29 07:46:13;;;;;;;4.67;1.23;;;12.00;99.90;;;;;;4912112;28;20517;-69
2023/10/29 07:48:38;;;;;;;5.03;2.00;;;12.00;99.90;;;;;;4911879;28;20257;-68
2023/10/29 07:51:04;;;;;;;6.70;1.20;;;12.10;99.90;;;;;;4911991;28;20184;-67
2023/10/29 07:53:32;;;;;;;3.80;1.80;;;12.10;99.90;;;;;;4911439;28;20192;-67
2023/10/29 07:56:11;;;;;;;3.23;1.70;;;12.10;99.90;;;;;;4911860;28;20274;-68
2023/10/29 07:58:38;;;;;;;4.00;1.80;;;12.20;99.90;;;;;;4911697;28;20311;-68
2023/10/29 08:01:10;;;;;;;2.50;1.60;;;12.20;99.90;;;;;;4911907;28;20172;-68
2023/10/29 08:03:35;;;;;;;4.07;1.63;;;12.20;99.90;;;;;;4911168;28;20611;-68
2023/10/29 08:06:02;;;;;;;5.60;1.60;;;12.30;99.90;;;;;;4911826;28;20279;-68
2023/10/29 08:08:28;;;;;;;5.53;1.90;;;12.30;99.90;;;;;;4911692;28;20574;-68
2023/10/29 08:10:54;;;;;;;3.47;1.60;;;12.30;99.90;;;;;;4903751;28;20204;-69
2023/10/29 08:13:19;;;;;;;2.77;1.13;;;12.40;99.90;;;;;;4910861;28;20199;-69
2023/10/29 08:15:45;;;;;;;1.87;1.10;;;12.50;99.90;;;;;;4911579;28;20196;-69
2023/10/29 08:18:11;;;;;;;4.13;1.17;;;12.50;99.90;;;;;;4911748;28;20214;-68
2023/10/29 08:20:36;;;;;;;4.60;1.10;;;12.50;99.90;;;;;;4911711;28;20187;-68
2023/10/29 08:23:02;;;;;;;3.03;1.67;;;12.50;99.90;;;;;;4908186;28;20226;-68
2023/10/29 08:25:28;;;;;;;4.60;1.63;;;12.50;99.90;;;;;;4956171;28;20206;-68
2023/10/29 08:27:53;;;;;;;1.90;1.20;;;12.60;99.90;;;;;;4954015;28;20224;-69
2023/10/29 08:30:19;;;;;;;4.27;1.00;;;12.60;99.90;;;;;;4951443;28;20673;-69
2023/10/29 08:32:45;;;;;;;3.57;0.70;;;12.70;99.90;;;;;;4938774;28;20195;-68
2023/10/29 08:35:10;;;;;;;2.27;0.60;;;12.70;99.90;;;;;;4910808;28;20192;-68
2023/10/29 08:37:36;;;;;;;5.07;0.87;;;12.70;99.90;;;;;;4911324;28;20603;-68
2023/10/29 08:40:02;;;;;;;3.03;0.70;;;12.80;99.90;;;;;;4911065;28;20200;-68
2023/10/29 08:42:30;;;;;;;4.50;0.83;;;12.80;99.90;;;;;;4911228;28;20558;-68
2023/10/29 08:44:56;;;;;;;2.60;0.80;;;12.80;99.90;;;;;;4910738;28;20188;-68
2023/10/29 08:47:22;;;;;;;4.77;1.07;;;13.00;99.90;;;;;;4911210;28;20234;-68
2023/10/29 08:49:48;;;;;;;2.20;0.90;;;13.20;99.90;;;;;;4911178;28;20566;-68
2023/10/29 08:52:14;;;;;;;1.17;0.57;;;13.40;99.90;;;;;;4903331;28;20191;-68
2023/10/29 08:54:40;;;;;;;1.10;0.80;;;13.40;99.90;;;;;;4910451;28;20197;-68
2023/10/29 08:57:06;;;;;;;1.57;0.67;;;13.70;99.90;;;;;;4910963;28;20539;-68
2023/10/29 08:59:31;;;;;;;2.13;0.93;;;13.80;99.90;;;;;;4910866;28;20277;-67
2023/10/29 09:01:57;;;;;;;3.60;0.87;;;14.00;99.90;;;;;;4910901;28;20191;-68
2023/10/29 09:04:23;;;;;;;2.17;0.93;;;13.80;99.90;;;;;;4910425;28;20184;-67
2023/10/29 09:06:48;;;;;;;1.83;0.77;;;13.80;99.90;;;;;;4910897;28;20511;-69
2023/10/29 09:09:14;;;;;;;3.00;1.83;;;13.80;99.90;;;;;;4910844;28;20212;-69
2023/10/29 09:11:43;;;;;;;1.27;0.77;;;13.80;99.90;;;;;;4910884;28;20192;-68
2023/10/29 09:14:11;;;;;;;1.53;0.67;;;13.70;99.90;;;;;;4901831;28;20644;-69
2023/10/29 09:16:36;;;;;;;1.17;0.60;;;13.70;99.90;;;;;;4909513;28;20246;-69
2023/10/29 09:19:03;;;;;;;1.43;0.60;;;13.70;99.90;;;;;;4910573;28;20247;-68
2023/10/29 09:21:28;;;;;;;2.03;0.80;;;13.80;99.90;;;;;;4910737;28;20761;-68
2023/10/29 09:23:54;;;;;;;2.83;0.80;;;13.80;99.90;;;;;;4909291;28;20270;-69
2023/10/29 09:26:19;;;;;;;3.57;0.80;;;13.80;99.90;;;;;;4910678;28;20184;-67
2023/10/29 09:28:45;;;;;;;7.30;0.93;;;13.70;99.90;;;;;;4910334;28;20708;-67
2023/10/29 09:31:17;;;;;;;2.77;0.70;;;13.70;99.90;;;;;;4910797;28;20680;-66
2023/10/29 09:33:44;;;;;;;3.00;0.80;;;13.60;99.90;;;;;;4909831;28;20678;-67
2023/10/29 09:36:09;;;;;;;5.33;0.90;;;13.60;99.90;;;;;;4911032;28;20202;-67
2023/10/29 09:38:35;;;;;;;1.17;0.73;;;13.60;99.90;;;;;;4910389;28;20654;-67
2023/10/29 09:41:01;;;;;;;3.37;0.87;;;13.50;99.90;;;;;;4910347;28;20192;-66
2023/10/29 09:43:30;;;;;;;4.60;1.03;;;13.60;99.90;;;;;;4902046;28;20192;-66
2023/10/29 09:45:58;;;;;;;2.50;0.97;;;13.60;99.90;;;;;;4910531;28;20680;-67
2023/10/29 09:48:25;;;;;;;1.33;0.83;;;13.50;99.90;;;;;;4910402;28;20237;-66
2023/10/29 09:50:51;;;;;;;2.80;0.90;;;13.60;99.90;;;;;;4910372;28;20775;-67
2023/10/29 09:53:18;;;;;;;3.47;1.17;;;13.60;99.90;;;;;;4909755;28;20700;-67
2023/10/29 09:55:44;;;;;;;1.67;1.47;;;13.50;99.90;;;;;;4910407;28;20192;-68
2023/10/29 09:58:10;;;;;;;2.03;1.50;;;13.40;99.90;;;;;;4910153;28;20282;-66
2023/10/29 10:00:36;;;;;;;2.50;1.60;;;13.40;99.90;;;;;;4910334;28;20199;-67
2023/10/29 10:03:02;;;;;;;5.83;2.27;;;13.40;99.90;;;;;;4910001;28;20246;-67
2023/10/29 10:05:28;;;;;;;3.30;1.40;;;13.30;99.90;;;;;;4910001;28;20188;-67
2023/10/29 10:07:55;;;;;;;8.73;6.33;;;13.30;99.90;;;;;;4910124;28;20284;-68
2023/10/29 10:10:35;;;;;;;4.67;0.90;;;13.20;99.90;;;;;;4910223;28;20318;-68
2023/10/29 10:13:01;;;;;;;1.80;1.10;;;13.20;99.90;;;;;;4910118;28;20192;-67
2023/10/29 10:15:27;;;;;;;15.57;7.77;;;13.20;99.90;;;;;;4909816;28;20279;-67
2023/10/29 10:18:04;;;;;;;2.90;1.20;;;13.20;99.90;;;;;;4908688;28;20377;-67
2023/10/29 10:20:31;;;;;;;5.83;2.70;;;13.20;99.90;;;;;;4910228;28;20214;-67
2023/10/29 10:22:58;;;;;;;3.10;1.90;;;13.30;99.90;;;;;;4909703;28;20204;-68
2023/10/29 10:25:25;;;;;;;19.33;17.23;;;13.40;99.90;;;;;;4904132;28;20601;-67
2023/10/29 10:27:55;;;;;;;9.43;7.63;;;13.40;99.90;;;;;;4907799;28;20255;-68
2023/10/29 10:30:34;;;;;;;45.17;35.40;;;13.50;99.90;;;;;;4910065;28;20192;-68
2023/10/29 10:33:14;;;;;;;9.03;6.37;;;13.60;99.90;;;;;;4909647;28;20188;-67
2023/10/29 10:35:50;;;;;;;5.10;2.50;;;13.50;99.90;;;;;;4910652;28;20673;-66
2023/10/29 10:38:16;;;;;;;7.93;2.70;;;13.50;99.90;;;;;;4912998;28;20726;-66
2023/10/29 10:40:42;;;;;;;4.43;1.20;;;13.50;99.90;;;;;;4913312;28;20279;-66
2023/10/29 10:43:08;;;;;;;5.53;4.87;;;13.50;99.90;;;;;;4912877;28;20218;-67
2023/10/29 10:45:35;;;;;;;8.83;2.50;;;13.40;99.90;;;;;;4912617;28;20275;-67
2023/10/29 10:48:05;;;;;;;11.13;4.23;;;13.40;99.90;;;;;;4912554;28;20207;-67
2023/10/29 10:50:33;;;;;;;8.83;5.40;;;13.40;99.90;;;;;;4913199;28;20188;-66
2023/10/29 10:52:58;;;;;;;4.20;1.50;;;13.40;99.90;;;;;;4912689;28;20730;-66
2023/10/29 10:55:25;;;;;;;5.50;1.57;;;13.40;99.90;;;;;;4912585;28;20295;-65
2023/10/29 10:57:51;;;;;;;10.17;5.70;;;13.50;99.90;;;;;;4912507;28;20204;-66
2023/10/29 11:00:18;;;;;;;7.77;3.13;;;13.50;99.90;;;;;;4912823;28;20360;-66
2023/10/29 11:02:45;;;;;;;5.60;2.67;;;13.40;99.90;;;;;;4911339;28;20196;-67
2023/10/29 11:05:15;;;;;;;2.80;1.40;;;13.50;99.90;;;;;;4912376;28;20575;-67
2023/10/29 11:07:42;;;;;;;1.83;1.27;;;13.60;99.90;;;;;;4912629;28;20195;-66
2023/10/29 11:10:12;;;;;;;4.67;1.40;;;13.60;99.90;;;;;;4905040;28;20250;-67
2023/10/29 11:12:40;;;;;;;7.83;4.33;;;13.70;99.90;;;;;;4913078;28;20184;-67
2023/10/29 11:15:16;;;;;;;3.73;1.87;;;13.60;99.90;;;;;;4904243;28;20266;-67
2023/10/29 11:18:02;;;;;;;14.10;12.50;;;13.60;99.90;;;;;;4912780;28;20188;-66
2023/10/29 11:20:36;;;;;;;9.60;6.00;;;13.60;99.90;;;;;;4912475;28;20245;-65
2023/10/29 11:23:09;;;;;;;11.77;10.47;;;13.70;99.90;;;;;;4911738;28;20218;-67
2023/10/29 11:25:38;;;;;;;6.23;2.43;;;13.60;99.90;;;;;;4911180;28;20567;-68
2023/10/29 11:28:04;;;;;;;4.63;2.23;;;13.60;99.90;;;;;;4912156;28;20184;-67
2023/10/29 11:30:30;;;;;;;3.13;2.07;;;13.60;99.90;;;;;;4912410;28;20196;-67
2023/10/29 11:33:14;;;;;;;15.93;6.80;;;13.60;99.90;;;;;;4912527;28;20188;-67
2023/10/29 11:35:40;;;;;;;13.73;6.93;;;13.60;99.90;;;;;;4904592;28;20180;-66
2023/10/29 11:38:27;;;;;;;11.70;8.20;;;13.50;99.90;;;;;;4911431;28;20216;-67
2023/10/29 11:40:53;;;;;;;11.47;4.53;;;13.50;99.90;;;;;;4912143;28;20262;-67
2023/10/29 11:43:22;;;;;;;7.10;3.40;;;13.40;99.90;;;;;;4910877;28;20262;-67
2023/10/29 11:45:59;;;;;;;14.93;8.93;;;13.40;99.90;;;;;;4911871;28;20700;-67
2023/10/29 11:48:25;;;;;;;6.93;3.07;;;13.40;99.90;;;;;;4911799;28;20231;-66
2023/10/29 11:51:08;;;;;;;5.93;2.43;;;13.30;99.90;;;;;;4945044;28;20663;-66
2023/10/29 11:53:35;;;;;;;4.57;1.90;;;13.30;99.90;;;;;;4911797;28;20184;-67
2023/10/29 11:56:04;;;;;;;6.93;4.00;;;13.30;99.90;;;;;;4912239;28;20687;-70
2023/10/29 11:58:30;;;;;;;5.97;3.30;;;13.40;99.90;;;;;;4911795;28;20254;-67
2023/10/29 12:00:56;;;;;;;3.93;2.20;;;13.40;99.90;;;;;;4911738;28;20198;-67
2023/10/29 12:03:23;;;;;;;6.60;3.30;;;13.50;99.90;;;;;;4911104;28;20230;-66
2023/10/29 12:05:49;;;;;;;7.60;4.43;;;13.50;99.90;;;;;;4911087;28;20188;-67
2023/10/29 12:08:15;;;;;;;8.30;4.10;;;13.60;99.90;;;;;;4904927;28;20749;-69
2023/10/29 12:10:48;;;;;;;2.07;1.40;;;13.60;99.90;;;;;;4910652;28;20267;-67
2023/10/29 12:13:18;;;;;;;3.23;1.87;;;13.60;99.90;;;;;;4904239;28;20176;-66
2023/10/29 12:15:48;;;;;;;2.90;1.57;;;13.60;99.90;;;;;;4904757;28;20196;-66
2023/10/29 12:18:23;;;;;;;4.50;1.70;;;13.50;99.90;;;;;;4941204;28;20218;-69
2023/10/29 12:20:49;;;;;;;4.07;2.07;;;13.60;99.90;;;;;;4911573;28;20179;-69
2023/10/29 12:23:15;;;;;;;5.00;1.90;;;13.70;99.90;;;;;;4909810;28;20180;-68
2023/10/29 12:25:43;;;;;;;4.47;2.43;;;13.60;99.90;;;;;;4911674;28;20242;-68
2023/10/29 12:28:08;;;;;;;7.77;2.87;;;13.50;99.90;;;;;;4917779;28;20220;-68
2023/10/29 12:30:41;;;;;;;5.77;3.10;;;13.60;99.90;;;;;;4911546;28;20197;-68
2023/10/29 12:33:26;;;;;;;5.33;3.07;;;13.70;99.90;;;;;;4908002;28;20282;-67
2023/10/29 12:35:54;;;;;;;3.80;2.20;;;13.80;99.90;;;;;;4909444;28;20188;-68
2023/10/29 12:38:21;;;;;;;4.93;0.93;;;13.70;99.90;;;;;;4911248;28;20215;-68
2023/10/29 12:41:06;;;;;;;2.23;0.60;;;13.60;99.90;;;;;;4911276;28;20326;-66
2023/10/29 12:43:36;;;;;;;3.33;0.87;;;13.50;99.90;;;;;;4911024;28;20611;-67